Time;durP1;ratioP1;P1;durP2;ratioP2;P2;SDS_P1;SDS_P2;PMS_P1;PMS_P2;Temp;Humidity;BMP_temperature;BMP_pressure;BME280_temperature;BME280_humidity;BME280_pressure;Samples;Min_cycle;Max_cycle;Signal;HPM_P1;HPM_P2
2022/02/13 00:00:54;;;;;;;46.97;14.88;;;;;;;;;;4938666;28;20557;-73
2022/02/13 00:03:21;;;;;;;61.93;16.50;;;;;;;;;;4940307;28;20058;-73
2022/02/13 00:05:50;;;;;;;61.65;16.60;;;;;;;;;;4937576;28;20134;-73
2022/02/13 00:08:18;;;;;;;65.80;17.00;;;;;;;;;;4939041;28;20083;-73
2022/02/13 00:11:04;;;;;;;65.32;17.10;;;;;;;;;;4940143;28;20479;-73
2022/02/13 00:13:31;;;;;;;58.80;16.92;;;;;;;;;;4938812;28;20091;-73
2022/02/13 00:15:57;;;;;;;61.08;15.85;;;;;;;;;;4941262;28;20044;-73
2022/02/13 00:18:23;;;;;;;48.72;14.55;;;;;;;;;;4953793;28;20134;-73
2022/02/13 00:20:50;;;;;;;41.92;11.73;;;;;;;;;;4936999;28;20146;-74
2022/02/13 00:23:16;;;;;;;64.07;16.95;;;;;;;;;;4939398;28;20062;-73
2022/02/13 00:25:43;;;;;;;60.75;15.80;;;;;;;;;;4938305;28;20704;-74
2022/02/13 00:28:13;;;;;;;52.17;15.43;;;;;;;;;;4940357;28;20106;-74
2022/02/13 00:30:42;;;;;;;56.20;15.73;;;;;;;;;;4937797;28;20451;-74
2022/02/13 00:33:08;;;;;;;58.38;16.25;;;;;;;;;;4939271;28;21025;-74
2022/02/13 00:35:35;;;;;;;55.45;13.70;;;;;;;;;;4939320;28;20185;-74
2022/02/13 00:38:01;;;;;;;63.95;15.70;;;;;;;;;;4938278;28;20122;-74
2022/02/13 00:40:28;;;;;;;51.33;16.63;;;;;;;;;;4938692;28;20051;-74
2022/02/13 00:42:54;;;;;;;57.00;17.63;;;;;;;;;;4947661;28;20178;-74
2022/02/13 00:45:21;;;;;;;62.35;19.05;;;;;;;;;;4945183;28;20097;-74
2022/02/13 00:47:47;;;;;;;33.53;13.15;;;;;;;;;;4955725;28;20134;-75
2022/02/13 00:50:20;;;;;;;40.72;16.80;;;;;;;;;;4953506;28;20602;-75
2022/02/13 00:52:47;;;;;;;55.15;18.48;;;;;;;;;;4955117;28;20502;-75
2022/02/13 00:55:13;;;;;;;61.10;19.50;;;;;;;;;;4952048;28;20451;-75
2022/02/13 00:57:41;;;;;;;59.63;20.40;;;;;;;;;;4952696;28;20134;-75
2022/02/13 01:00:08;;;;;;;58.58;18.60;;;;;;;;;;4956758;28;20138;-75
2022/02/13 01:02:35;;;;;;;58.40;17.15;;;;;;;;;;4955641;28;20083;-75
2022/02/13 01:05:07;;;;;;;71.72;21.73;;;;;;;;;;4952661;28;22000;-75
2022/02/13 01:07:34;;;;;;;72.88;21.88;;;;;;;;;;4956344;28;20583;-75
2022/02/13 01:10:00;;;;;;;69.43;22.33;;;;;;;;;;4951563;28;20094;-75
2022/02/13 01:12:29;;;;;;;64.82;21.10;;;;;;;;;;4952244;28;20082;-75
2022/02/13 01:14:56;;;;;;;70.70;21.42;;;;;;;;;;4950452;28;20070;-75
2022/02/13 01:17:22;;;;;;;54.20;20.10;;;;;;;;;;4953731;28;20150;-75
2022/02/13 01:19:52;;;;;;;60.60;21.77;;;;;;;;;;4951883;28;21498;-75
2022/02/13 01:22:18;;;;;;;60.10;21.10;;;;;;;;;;4953778;28;20047;-74
2022/02/13 01:24:44;;;;;;;74.20;23.60;;;;;;;;;;4954019;28;21159;-75
2022/02/13 01:27:12;;;;;;;69.72;22.65;;;;;;;;;;4951881;28;20047;-75
2022/02/13 01:29:38;;;;;;;77.88;20.42;;;;;;;;;;4952747;28;20103;-75
2022/02/13 01:32:05;;;;;;;86.05;23.80;;;;;;;;;;4957473;28;20142;-75
2022/02/13 01:34:31;;;;;;;63.15;22.33;;;;;;;;;;4952767;28;20138;-75
2022/02/13 01:36:58;;;;;;;73.68;22.65;;;;;;;;;;4950128;28;20090;-75
2022/02/13 01:39:24;;;;;;;76.60;21.45;;;;;;;;;;4952778;28;20134;-75
2022/02/13 01:41:51;;;;;;;69.05;23.50;;;;;;;;;;4953207;28;20047;-76
2022/02/13 01:44:33;;;;;;;58.47;17.90;;;;;;;;;;4951837;28;20089;-76
2022/02/13 01:47:02;;;;;;;73.55;22.85;;;;;;;;;;4952387;28;20079;-75
2022/02/13 01:49:29;;;;;;;64.50;24.63;;;;;;;;;;4953569;28;20086;-75
2022/02/13 01:51:59;;;;;;;63.90;23.58;;;;;;;;;;4956530;28;20051;-75
2022/02/13 01:54:26;;;;;;;60.22;24.70;;;;;;;;;;4952128;28;20101;-76
2022/02/13 01:56:52;;;;;;;67.13;24.35;;;;;;;;;;4949392;28;20141;-75
2022/02/13 01:59:19;;;;;;;63.83;23.57;;;;;;;;;;4952380;28;20051;-75
2022/02/13 02:01:51;;;;;;;57.05;20.92;;;;;;;;;;4949849;28;20083;-74
2022/02/13 02:04:18;;;;;;;61.85;22.67;;;;;;;;;;4951655;28;20544;-74
2022/02/13 02:06:44;;;;;;;60.15;25.13;;;;;;;;;;4954817;28;20138;-75
2022/02/13 02:09:11;;;;;;;61.75;26.00;;;;;;;;;;4953202;28;20055;-74
2022/02/13 02:11:38;;;;;;;53.88;21.50;;;;;;;;;;4952286;28;20165;-74
2022/02/13 02:14:04;;;;;;;49.03;21.60;;;;;;;;;;4953804;28;20150;-74
2022/02/13 02:16:31;;;;;;;59.88;22.85;;;;;;;;;;4950404;28;20571;-74
2022/02/13 02:18:57;;;;;;;49.20;22.10;;;;;;;;;;4958866;28;20111;-74
2022/02/13 02:21:24;;;;;;;62.00;23.60;;;;;;;;;;4951887;28;20079;-74
2022/02/13 02:23:57;;;;;;;65.68;21.95;;;;;;;;;;4953801;28;20154;-74
2022/02/13 02:26:24;;;;;;;60.03;22.30;;;;;;;;;;4950112;28;20138;-75
2022/02/13 02:28:50;;;;;;;50.47;20.55;;;;;;;;;;4953401;28;20110;-74
2022/02/13 02:31:20;;;;;;;54.90;22.52;;;;;;;;;;4952129;28;20138;-75
2022/02/13 02:33:46;;;;;;;63.05;23.85;;;;;;;;;;4955133;28;20158;-74
2022/02/13 02:36:13;;;;;;;70.95;25.13;;;;;;;;;;4951720;28;20090;-74
2022/02/13 02:38:43;;;;;;;77.20;26.00;;;;;;;;;;4953721;28;20109;-74
2022/02/13 02:41:09;;;;;;;;;;;;;;;;;;4955452;28;20085;-74
2022/02/13 02:43:35;;;;;;;66.40;23.17;;;;;;;;;;4954100;28;19973;-74
2022/02/13 02:46:03;;;;;;;66.40;25.35;;;;;;;;;;4955325;28;20082;-74
2022/02/13 02:48:30;;;;;;;89.20;30.40;;;;;;;;;;4951696;28;20131;-74
2022/02/13 02:50:56;;;;;;;51.43;17.50;;;;;;;;;;4953589;28;20159;-75
2022/02/13 02:53:26;;;;;;;68.70;25.77;;;;;;;;;;4952693;28;20352;-75
2022/02/13 02:55:52;;;;;;;64.38;25.30;;;;;;;;;;4951987;28;20132;-75
2022/02/13 02:58:19;;;;;;;73.63;24.20;;;;;;;;;;4955311;28;20047;-76
2022/02/13 03:00:50;;;;;;;74.90;25.35;;;;;;;;;;4951215;28;20126;-75
2022/02/13 03:03:17;;;;;;;64.78;22.42;;;;;;;;;;4952399;28;20101;-75
2022/02/13 03:05:44;;;;;;;81.13;27.88;;;;;;;;;;4950709;28;20133;-76
2022/02/13 03:08:13;;;;;;;85.35;29.35;;;;;;;;;;4951123;28;20074;-75
2022/02/13 03:10:39;;;;;;;74.72;25.77;;;;;;;;;;4951736;28;20093;-76
2022/02/13 03:13:05;;;;;;;70.65;25.25;;;;;;;;;;4954758;28;20134;-76
2022/02/13 03:15:33;;;;;;;87.82;27.42;;;;;;;;;;4948987;28;20549;-76
2022/02/13 03:17:59;;;;;;;87.78;25.45;;;;;;;;;;4953695;28;20082;-76
2022/02/13 03:20:26;;;;;;;88.70;26.52;;;;;;;;;;4951244;28;20178;-75
2022/02/13 03:22:53;;;;;;;74.57;22.52;;;;;;;;;;4952380;28;20700;-76
2022/02/13 03:25:19;;;;;;;81.22;25.25;;;;;;;;;;4948983;28;20090;-76
2022/02/13 03:27:46;;;;;;;87.15;26.60;;;;;;;;;;4952371;28;20137;-76
2022/02/13 03:30:19;;;;;;;78.07;24.48;;;;;;;;;;4951605;28;20133;-76
2022/02/13 03:32:45;;;;;;;71.93;23.20;;;;;;;;;;4950333;28;20102;-76
2022/02/13 03:35:12;;;;;;;79.38;24.23;;;;;;;;;;4948285;28;20519;-76
2022/02/13 03:37:46;;;;;;;81.57;24.73;;;;;;;;;;4951685;28;20083;-77
2022/02/13 03:40:13;;;;;;;61.17;16.70;;;;;;;;;;4954194;28;20079;-76
2022/02/13 03:42:39;;;;;;;82.67;22.30;;;;;;;;;;4951549;28;20078;-76
2022/02/13 03:45:06;;;;;;;51.90;16.13;;;;;;;;;;4951080;28;20050;-76
2022/02/13 03:47:40;;;;;;;88.55;24.63;;;;;;;;;;4953415;28;20306;-76
2022/02/13 03:50:08;;;;;;;77.70;23.13;;;;;;;;;;4950743;28;20093;-76
2022/02/13 03:52:34;;;;;;;60.92;19.00;;;;;;;;;;4952960;28;20054;-76
2022/02/13 03:55:03;;;;;;;65.80;22.95;;;;;;;;;;4951221;28;20083;-76
2022/02/13 03:57:29;;;;;;;70.75;20.25;;;;;;;;;;4950617;28;20078;-76
2022/02/13 03:59:59;;;;;;;81.28;24.08;;;;;;;;;;4965063;28;20137;-76
2022/02/13 04:02:25;;;;;;;81.90;24.20;;;;;;;;;;4950929;28;20134;-76
2022/02/13 04:04:52;;;;;;;74.93;22.98;;;;;;;;;;4950671;28;20161;-76
2022/02/13 04:07:19;;;;;;;75.97;24.67;;;;;;;;;;4953413;28;20125;-76
2022/02/13 04:09:47;;;;;;;79.63;21.63;;;;;;;;;;4952677;28;20346;-75
2022/02/13 04:12:14;;;;;;;63.47;24.13;;;;;;;;;;4952863;28;20051;-76
2022/02/13 04:14:41;;;;;;;73.18;23.73;;;;;;;;;;4950789;28;20146;-76
2022/02/13 04:17:07;;;;;;;81.57;23.58;;;;;;;;;;4953400;28;20550;-76
2022/02/13 04:19:34;;;;;;;65.90;19.08;;;;;;;;;;4954029;28;20082;-76
2022/02/13 04:22:00;;;;;;;69.07;20.63;;;;;;;;;;4954168;28;20071;-76
2022/02/13 04:24:29;;;;;;;71.32;21.25;;;;;;;;;;4953887;28;20086;-76
2022/02/13 04:26:55;;;;;;;80.20;20.90;;;;;;;;;;4957563;28;20105;-76
2022/02/13 04:29:21;;;;;;;78.07;21.13;;;;;;;;;;4957205;28;20482;-76
2022/02/13 04:31:54;;;;;;;74.57;21.15;;;;;;;;;;4966860;28;20142;-76
2022/02/13 04:34:26;;;;;;;65.45;20.77;;;;;;;;;;4954276;28;20054;-76
2022/02/13 04:36:52;;;;;;;81.45;22.25;;;;;;;;;;4954549;28;20083;-76
2022/02/13 04:39:26;;;;;;;78.43;25.10;;;;;;;;;;4956068;28;20142;-76
2022/02/13 04:41:52;;;;;;;50.97;17.25;;;;;;;;;;4954660;28;20094;-75
2022/02/13 04:44:18;;;;;;;65.40;19.10;;;;;;;;;;4954648;28;20051;-75
2022/02/13 04:46:45;;;;;;;71.78;19.50;;;;;;;;;;4957738;28;20518;-76
2022/02/13 04:49:12;;;;;;;65.28;18.85;;;;;;;;;;4954231;28;20078;-76
2022/02/13 04:51:38;;;;;;;72.63;21.52;;;;;;;;;;4954435;28;20130;-76
2022/02/13 04:54:11;;;;;;;65.25;19.60;;;;;;;;;;4954671;28;20134;-75
2022/02/13 04:56:38;;;;;;;55.55;17.55;;;;;;;;;;4957426;28;20082;-75
2022/02/13 04:59:04;;;;;;;74.88;21.38;;;;;;;;;;4957869;28;20133;-76
2022/02/13 05:01:31;;;;;;;84.37;19.87;;;;;;;;;;4956899;28;20130;-75
2022/02/13 05:03:57;;;;;;;83.65;21.15;;;;;;;;;;4954058;28;20090;-75
2022/02/13 05:06:24;;;;;;;63.53;18.48;;;;;;;;;;4954848;28;20582;-75
2022/02/13 05:08:56;;;;;;;40.08;11.75;;;;;;;;;;4958180;28;20134;-75
2022/02/13 05:11:23;;;;;;;67.53;15.15;;;;;;;;;;4958082;28;20505;-75
2022/02/13 05:13:50;;;;;;;43.10;14.20;;;;;;;;;;4952450;28;20087;-75
2022/02/13 05:16:22;;;;;;;55.90;15.90;;;;;;;;;;4953001;28;20083;-74
2022/02/13 05:18:49;;;;;;;46.70;13.48;;;;;;;;;;4952548;28;20130;-75
2022/02/13 05:21:16;;;;;;;43.28;13.70;;;;;;;;;;4956133;28;20142;-75
2022/02/13 05:23:49;;;;;;;45.35;14.90;;;;;;;;;;4952987;28;20478;-75
2022/02/13 05:26:16;;;;;;;42.90;14.63;;;;;;;;;;4954637;28;20606;-74
2022/02/13 05:28:42;;;;;;;40.92;12.02;;;;;;;;;;4956768;28;20126;-75
2022/02/13 05:31:10;;;;;;;25.80;10.00;;;;;;;;;;4954396;28;20110;-74
2022/02/13 05:33:36;;;;;;;50.55;13.23;;;;;;;;;;4955539;28;20078;-75
2022/02/13 05:36:03;;;;;;;34.22;10.55;;;;;;;;;;4955418;28;20573;-75
2022/02/13 05:38:30;;;;;;;30.05;11.45;;;;;;;;;;4956085;28;20086;-74
2022/02/13 05:40:56;;;;;;;36.97;12.60;;;;;;;;;;4951408;28;20138;-75
2022/02/13 05:43:23;;;;;;;26.52;9.50;;;;;;;;;;4955768;28;20678;-75
2022/02/13 05:45:49;;;;;;;27.27;10.48;;;;;;;;;;4955712;28;20935;-74
2022/02/13 05:48:16;;;;;;;38.28;11.73;;;;;;;;;;4953659;28;20487;-74
2022/02/13 05:50:42;;;;;;;28.80;11.80;;;;;;;;;;4953287;28;20125;-75
2022/02/13 05:53:11;;;;;;;38.47;11.07;;;;;;;;;;4954583;28;20137;-75
2022/02/13 05:55:37;;;;;;;27.42;11.73;;;;;;;;;;4953422;28;20192;-74
2022/02/13 05:58:03;;;;;;;42.03;12.10;;;;;;;;;;4955068;28;20130;-74
2022/02/13 06:00:32;;;;;;;29.48;10.13;;;;;;;;;;4955209;28;20093;-74
2022/02/13 06:02:59;;;;;;;27.40;11.35;;;;;;;;;;4954010;28;20047;-74
2022/02/13 06:05:25;;;;;;;20.83;9.85;;;;;;;;;;4952891;28;20726;-75
2022/02/13 06:07:53;;;;;;;38.08;10.85;;;;;;;;;;4955207;28;20126;-74
2022/02/13 06:10:20;;;;;;;32.70;11.23;;;;;;;;;;4957028;28;20451;-74
2022/02/13 06:12:47;;;;;;;;;;;;;;;;;;4956387;28;20553;-74
2022/02/13 06:15:21;;;;;;;31.27;8.82;;;;;;;;;;4951611;28;19973;-74
2022/02/13 06:17:49;;;;;;;23.35;9.88;;;;;;;;;;4955607;28;20051;-74
2022/02/13 06:20:15;;;;;;;24.40;9.98;;;;;;;;;;4957009;28;20082;-74
2022/02/13 06:22:42;;;;;;;29.63;10.30;;;;;;;;;;4954851;28;20097;-73
2022/02/13 06:25:09;;;;;;;16.13;7.45;;;;;;;;;;4952498;28;20398;-74
2022/02/13 06:27:35;;;;;;;17.60;6.93;;;;;;;;;;4952655;28;20110;-74
2022/02/13 06:30:03;;;;;;;20.48;8.38;;;;;;;;;;4957104;28;20079;-73
2022/02/13 06:32:29;;;;;;;23.63;8.73;;;;;;;;;;4952178;28;20122;-74
2022/02/13 06:34:56;;;;;;;22.75;8.45;;;;;;;;;;4957214;28;20150;-73
2022/02/13 06:37:22;;;;;;;27.63;9.85;;;;;;;;;;4949152;28;20047;-73
2022/02/13 06:39:49;;;;;;;24.00;9.40;;;;;;;;;;4953976;28;20146;-74
2022/02/13 06:42:16;;;;;;;22.73;9.52;;;;;;;;;;4953253;28;20142;-73
2022/02/13 06:44:42;;;;;;;26.23;10.50;;;;;;;;;;4954984;28;20130;-73
2022/02/13 06:47:09;;;;;;;32.88;10.57;;;;;;;;;;4952897;28;20142;-73
2022/02/13 06:49:35;;;;;;;29.42;10.60;;;;;;;;;;4954082;28;21037;-72
2022/02/13 06:52:02;;;;;;;37.58;12.25;;;;;;;;;;4955210;28;20134;-74
2022/02/13 06:54:28;;;;;;;37.67;13.25;;;;;;;;;;4950286;28;20150;-72
2022/02/13 06:56:55;;;;;;;39.70;13.30;;;;;;;;;;4952065;28;20074;-73
2022/02/13 06:59:25;;;;;;;45.30;16.48;;;;;;;;;;4950749;28;20447;-73
2022/02/13 07:01:51;;;;;;;47.47;13.30;;;;;;;;;;4953042;28;20134;-73
2022/02/13 07:04:17;;;;;;;55.85;16.52;;;;;;;;;;4967371;28;20089;-72
2022/02/13 07:06:50;;;;;;;46.47;15.05;;;;;;;;;;4952625;28;20134;-72
2022/02/13 07:09:17;;;;;;;50.80;14.18;;;;;;;;;;4951801;28;20165;-72
2022/02/13 07:11:43;;;;;;;51.40;15.73;;;;;;;;;;4955048;28;20042;-72
2022/02/13 07:14:16;;;;;;;60.78;15.55;;;;;;;;;;4953521;28;20602;-72
2022/02/13 07:16:43;;;;;;;56.97;15.88;;;;;;;;;;4951000;28;20146;-73
2022/02/13 07:19:10;;;;;;;64.47;16.08;;;;;;;;;;4952998;28;20141;-73
2022/02/13 07:21:37;;;;;;;62.55;16.73;;;;;;;;;;4952180;28;20126;-72
2022/02/13 07:24:03;;;;;;;46.33;14.00;;;;;;;;;;4950679;28;20085;-72
2022/02/13 07:26:30;;;;;;;65.70;17.77;;;;;;;;;;4950078;28;20142;-72
2022/02/13 07:29:05;;;;;;;64.53;14.93;;;;;;;;;;4954409;28;20130;-72
2022/02/13 07:31:33;;;;;;;71.30;16.00;;;;;;;;;;4953662;28;20511;-72
2022/02/13 07:34:00;;;;;;;57.72;15.77;;;;;;;;;;4950615;28;20055;-72
2022/02/13 07:36:29;;;;;;;65.95;16.42;;;;;;;;;;4951577;28;20510;-74
2022/02/13 07:38:56;;;;;;;52.83;15.32;;;;;;;;;;4950001;28;20117;-73
2022/02/13 07:41:23;;;;;;;72.35;17.50;;;;;;;;;;4951381;28;20582;-73
2022/02/13 07:43:49;;;;;;;51.93;13.97;;;;;;;;;;4953300;28;20481;-73
2022/02/13 07:46:16;;;;;;;59.10;15.97;;;;;;;;;;4952213;28;20051;-73
2022/02/13 07:48:42;;;;;;;52.75;12.38;;;;;;;;;;4954272;28;20082;-74
2022/02/13 07:51:11;;;;;;;43.92;13.93;;;;;;;;;;4953020;28;20432;-73
2022/02/13 07:53:38;;;;;;;37.38;10.60;;;;;;;;;;4953515;28;20142;-73
2022/02/13 07:56:05;;;;;;;57.45;15.15;;;;;;;;;;4953654;28;20082;-73
2022/02/13 07:58:39;;;;;;;39.55;11.93;;;;;;;;;;4951137;28;20535;-73
2022/02/13 08:01:06;;;;;;;52.97;14.18;;;;;;;;;;4953916;28;20137;-74
2022/02/13 08:03:35;;;;;;;46.80;13.70;;;;;;;;;;4953110;28;20112;-73
2022/02/13 08:06:03;;;;;;;50.03;14.90;;;;;;;;;;4952700;28;20058;-74
2022/02/13 08:08:29;;;;;;;51.22;15.07;;;;;;;;;;4953879;28;20130;-73
2022/02/13 08:10:56;;;;;;;65.57;16.10;;;;;;;;;;4948725;28;20142;-74
2022/02/13 08:13:23;;;;;;;56.28;15.23;;;;;;;;;;4949475;28;20499;-73
2022/02/13 08:15:51;;;;;;;52.70;15.23;;;;;;;;;;4948865;28;20134;-74
2022/02/13 08:18:17;;;;;;;54.05;15.20;;;;;;;;;;4950619;28;20086;-73
2022/02/13 08:20:44;;;;;;;56.00;16.50;;;;;;;;;;4952688;28;20125;-74
2022/02/13 08:23:11;;;;;;;54.65;15.02;;;;;;;;;;4949186;28;20143;-74
2022/02/13 08:25:42;;;;;;;68.18;16.75;;;;;;;;;;4949143;28;20216;-74
2022/02/13 08:28:11;;;;;;;64.40;17.13;;;;;;;;;;4949620;28;20129;-73
2022/02/13 08:30:38;;;;;;;61.17;17.48;;;;;;;;;;4949482;28;20058;-73
2022/02/13 08:33:04;;;;;;;70.25;18.63;;;;;;;;;;4948404;28;20134;-74
2022/02/13 08:35:31;;;;;;;85.75;19.05;;;;;;;;;;4949592;28;20142;-73
2022/02/13 08:38:00;;;;;;;74.88;19.08;;;;;;;;;;4951540;28;20138;-73
2022/02/13 08:40:30;;;;;;;80.57;19.70;;;;;;;;;;4949656;28;20130;-74
2022/02/13 08:42:58;;;;;;;78.32;20.35;;;;;;;;;;4948859;28;20141;-74
2022/02/13 08:45:25;;;;;;;73.35;18.10;;;;;;;;;;4948738;28;20083;-73
2022/02/13 08:47:52;;;;;;;76.88;17.25;;;;;;;;;;4948371;28;20566;-73
2022/02/13 08:50:20;;;;;;;61.95;18.05;;;;;;;;;;4954506;28;20142;-73
2022/02/13 08:52:48;;;;;;;87.07;19.63;;;;;;;;;;4948755;28;20051;-73
2022/02/13 08:55:15;;;;;;;72.63;19.10;;;;;;;;;;4949110;28;20051;-73
2022/02/13 08:57:43;;;;;;;73.40;21.92;;;;;;;;;;4953209;28;20171;-74
2022/02/13 09:00:11;;;;;;;66.70;14.85;;;;;;;;;;4949544;28;20082;-73
2022/02/13 09:02:38;;;;;;;75.45;16.13;;;;;;;;;;4946881;28;20097;-74
2022/02/13 09:05:09;;;;;;;69.53;17.42;;;;;;;;;;4949533;28;20106;-73
2022/02/13 09:07:38;;;;;;;65.57;16.73;;;;;;;;;;4951876;28;20131;-73
2022/02/13 09:10:05;;;;;;;54.35;15.10;;;;;;;;;;4967085;28;20055;-74
2022/02/13 09:12:34;;;;;;;89.53;20.65;;;;;;;;;;4953516;28;20051;-73
2022/02/13 09:15:00;;;;;;;83.78;18.65;;;;;;;;;;4952446;28;20081;-73
2022/02/13 09:17:27;;;;;;;56.20;13.27;;;;;;;;;;4955595;28;20134;-74
2022/02/13 09:20:01;;;;;;;88.50;19.40;;;;;;;;;;4953839;28;20078;-74
2022/02/13 09:22:27;;;;;;;84.10;19.58;;;;;;;;;;4950978;28;20055;-74
2022/02/13 09:24:53;;;;;;;72.88;19.38;;;;;;;;;;4954022;28;20139;-73
2022/02/13 09:27:26;;;;;;;76.15;17.55;;;;;;;;;;4951839;28;20534;-74
2022/02/13 09:29:54;;;;;;;112.28;24.27;;;;;;;;;;4951213;28;20142;-74
2022/02/13 09:32:20;;;;;;;72.57;21.67;;;;;;;;;;4952709;28;20051;-73
2022/02/13 09:34:47;;;;;;;91.32;21.17;;;;;;;;;;4953344;28;20138;-74
2022/02/13 09:37:13;;;;;;;78.72;18.35;;;;;;;;;;4951566;28;20570;-73
2022/02/13 09:39:46;;;;;;;86.32;21.00;;;;;;;;;;4951981;28;20070;-73
2022/02/13 09:42:12;;;;;;;85.18;19.80;;;;;;;;;;4953416;28;20154;-73
2022/02/13 09:44:39;;;;;;;79.22;19.55;;;;;;;;;;4952672;28;20098;-73
2022/02/13 09:47:07;;;;;;;82.40;19.55;;;;;;;;;;4951267;28;20130;-74
2022/02/13 09:49:33;;;;;;;78.28;17.48;;;;;;;;;;4954405;28;20138;-74
2022/02/13 09:52:01;;;;;;;106.85;21.60;;;;;;;;;;4951597;28;20139;-74
2022/02/13 09:54:27;;;;;;;87.03;19.60;;;;;;;;;;4952623;28;20477;-73
2022/02/13 09:57:59;;;;;;;86.82;25.13;;;;;;;;;;4951637;28;20082;-73
2022/02/13 09:59:54;;;;;;;88.15;22.20;;;;;;;;;;4952037;28;20047;-74
2022/02/13 10:02:34;;;;;;;75.65;20.40;;;;;;;;;;4954664;28;20134;-74
2022/02/13 10:05:02;;;;;;;78.78;21.10;;;;;;;;;;4953090;28;20131;-74
2022/02/13 10:07:30;;;;;;;91.30;19.88;;;;;;;;;;4948883;28;20142;-74
2022/02/13 10:09:58;;;;;;;79.00;19.85;;;;;;;;;;4958696;28;20146;-74
2022/02/13 10:12:40;;;;;;;84.85;22.77;;;;;;;;;;4953215;28;20114;-75
2022/02/13 10:15:22;;;;;;;86.32;21.65;;;;;;;;;;4950433;28;20127;-74
2022/02/13 10:17:56;;;;;;;85.22;19.10;;;;;;;;;;4950748;28;20058;-74
2022/02/13 10:20:49;;;;;;;81.97;18.75;;;;;;;;;;4950854;28;20083;-74
2022/02/13 10:23:18;;;;;;;77.82;17.85;;;;;;;;;;4952161;28;20174;-75
2022/02/13 10:25:45;;;;;;;48.95;16.08;;;;;;;;;;4951560;28;20125;-74
2022/02/13 10:28:15;;;;;;;73.28;17.00;;;;;;;;;;4948805;28;20046;-74
2022/02/13 10:30:43;;;;;;;71.70;17.90;;;;;;;;;;4953104;28;20125;-74
2022/02/13 10:33:14;;;;;;;48.58;12.73;;;;;;;;;;4955217;28;20078;-74
2022/02/13 10:35:40;;;;;;;46.33;13.63;;;;;;;;;;4950111;28;20563;-74
2022/02/13 10:38:08;;;;;;;49.90;13.20;;;;;;;;;;4952479;28;20142;-73
2022/02/13 10:40:34;;;;;;;53.78;15.77;;;;;;;;;;4956152;28;20130;-74
2022/02/13 10:43:03;;;;;;;44.38;15.55;;;;;;;;;;4952260;28;20137;-74
2022/02/13 10:45:30;;;;;;;56.35;16.80;;;;;;;;;;4949112;28;20079;-74
2022/02/13 10:47:58;;;;;;;;;;;;;;;;;;4950304;28;20102;-74
2022/02/13 10:50:26;;;;;;;73.28;18.88;;;;;;;;;;4951259;28;20013;-74
2022/02/13 10:52:58;;;;;;;70.18;19.35;;;;;;;;;;4951333;28;20162;-74
2022/02/13 10:55:26;;;;;;;72.40;20.23;;;;;;;;;;4950375;28;20507;-74
2022/02/13 10:57:54;;;;;;;;;;;;;;;;;;4943982;28;20274;-76
2022/02/13 11:00:21;;;;;;;61.97;16.75;;;;;;;;;;4935907;28;19969;-74
2022/02/13 11:02:48;;;;;;;79.35;21.48;;;;;;;;;;4943686;28;20055;-73
2022/02/13 11:05:15;;;;;;;;;;;;;;;;;;4936583;28;20150;-74
2022/02/13 11:07:49;;;;;;;86.85;18.70;;;;;;;;;;4954803;28;19929;-73
2022/02/13 11:10:28;;;;;;;90.15;22.02;;;;;;;;;;4954236;28;20079;-74
2022/02/13 11:12:57;;;;;;;90.15;22.40;;;;;;;;;;4949978;28;20109;-74
2022/02/13 11:15:30;;;;;;;88.72;21.15;;;;;;;;;;4951974;28;20057;-74
2022/02/13 11:18:02;;;;;;;75.13;19.40;;;;;;;;;;4950027;28;20059;-74
2022/02/13 11:20:29;;;;;;;76.57;21.98;;;;;;;;;;4948632;28;20150;-74
2022/02/13 11:23:16;;;;;;;90.88;22.65;;;;;;;;;;4950427;28;20078;-74
2022/02/13 11:25:50;;;;;;;85.85;23.35;;;;;;;;;;4943768;28;20039;-73
2022/02/13 11:28:16;;;;;;;81.82;23.58;;;;;;;;;;4948048;28;20082;-74
2022/02/13 11:30:47;;;;;;;109.35;24.25;;;;;;;;;;4949362;28;20075;-74
2022/02/13 11:33:23;;;;;;;107.88;24.38;;;;;;;;;;4950293;28;20778;-73
2022/02/13 11:35:54;;;;;;;93.75;22.23;;;;;;;;;;4948948;28;20134;-74
2022/02/13 11:38:39;;;;;;;89.10;24.27;;;;;;;;;;4949391;28;20614;-73
2022/02/13 11:41:06;;;;;;;83.63;21.42;;;;;;;;;;4949952;28;20558;-73
2022/02/13 11:43:45;;;;;;;85.97;21.13;;;;;;;;;;4951107;28;20126;-73
2022/02/13 11:46:12;;;;;;;89.55;23.25;;;;;;;;;;4948817;28;20066;-73
2022/02/13 11:48:42;;;;;;;101.95;23.88;;;;;;;;;;4951708;28;20090;-74
2022/02/13 11:51:10;;;;;;;89.03;20.85;;;;;;;;;;4951633;28;20174;-73
2022/02/13 11:53:43;;;;;;;104.13;25.83;;;;;;;;;;4949503;28;20749;-73
2022/02/13 11:56:20;;;;;;;100.00;25.10;;;;;;;;;;4949129;28;20134;-73
2022/02/13 11:58:47;;;;;;;96.82;23.33;;;;;;;;;;4949236;28;20082;-73
2022/02/13 12:01:32;;;;;;;106.18;27.20;;;;;;;;;;4952585;28;20046;-73
2022/02/13 12:03:58;;;;;;;94.82;23.30;;;;;;;;;;4949830;28;20087;-73
2022/02/13 12:06:27;;;;;;;105.30;25.13;;;;;;;;;;4948378;28;20666;-73
2022/02/13 12:08:53;;;;;;;;;;;;;;;;;;4950434;28;20055;-73
2022/02/13 12:11:27;;;;;;;79.35;21.52;;;;;;;;;;4951582;28;20386;-73
2022/02/13 12:13:54;;;;;;;92.47;24.38;;;;;;;;;;4948579;28;20057;-73
2022/02/13 12:16:24;;;;;;;83.63;22.77;;;;;;;;;;4952969;28;20043;-73
2022/02/13 12:18:50;;;;;;;71.85;20.65;;;;;;;;;;4947621;28;20153;-73
2022/02/13 12:21:24;;;;;;;80.40;23.95;;;;;;;;;;4950011;28;20423;-74
2022/02/13 12:24:03;;;;;;;84.43;25.23;;;;;;;;;;4952401;28;20090;-73
2022/02/13 12:26:31;;;;;;;82.90;21.45;;;;;;;;;;4948295;28;20121;-73
2022/02/13 12:28:58;;;;;;;84.20;22.33;;;;;;;;;;4947111;28;20618;-73
2022/02/13 12:31:25;;;;;;;77.72;22.73;;;;;;;;;;4942642;28;20913;-74
2022/02/13 12:33:53;;;;;;;65.30;19.10;;;;;;;;;;4949214;28;20142;-74
2022/02/13 12:36:23;;;;;;;86.53;21.55;;;;;;;;;;4950363;28;20110;-74
2022/02/13 12:38:54;;;;;;;82.28;24.15;;;;;;;;;;4951273;28;20087;-74
2022/02/13 12:41:25;;;;;;;81.57;22.52;;;;;;;;;;4951706;28;20058;-73
2022/02/13 12:43:53;;;;;;;87.40;21.98;;;;;;;;;;4954198;28;20109;-73
2022/02/13 12:46:22;;;;;;;76.25;23.17;;;;;;;;;;4956630;28;20113;-73
2022/02/13 12:48:49;;;;;;;74.10;19.90;;;;;;;;;;4953289;28;20078;-73
2022/02/13 12:51:25;;;;;;;77.28;20.67;;;;;;;;;;4953978;28;20085;-73
2022/02/13 12:53:55;;;;;;;71.50;22.17;;;;;;;;;;4958827;28;20688;-73
2022/02/13 12:56:23;;;;;;;71.63;21.08;;;;;;;;;;4952625;28;20146;-73
2022/02/13 12:58:49;;;;;;;61.88;19.50;;;;;;;;;;4949230;28;20422;-73
2022/02/13 13:01:32;;;;;;;71.10;22.67;;;;;;;;;;4954752;28;20130;-72
2022/02/13 13:03:59;;;;;;;83.90;22.15;;;;;;;;;;4951439;28;20443;-73
2022/02/13 13:06:29;;;;;;;75.07;23.25;;;;;;;;;;4953386;28;20138;-73
2022/02/13 13:08:58;;;;;;;;;;;;;;;;;;4955592;28;20063;-73
2022/02/13 13:11:25;;;;;;;;;;;;;;;;;;4956922;28;19945;-73
2022/02/13 13:14:06;;;;;;;73.20;22.65;;;;;;;;;;4954226;28;20301;-73
2022/02/13 13:16:33;;;;;;;71.40;22.35;;;;;;;;;;4953234;28;20090;-73
2022/02/13 13:19:10;;;;;;;68.40;22.65;;;;;;;;;;4954952;28;20047;-73
2022/02/13 13:21:43;;;;;;;57.20;19.90;;;;;;;;;;4954366;28;20090;-73
2022/02/13 13:24:27;;;;;;;69.28;21.60;;;;;;;;;;4954006;28;20063;-74
2022/02/13 13:26:57;;;;;;;71.25;22.85;;;;;;;;;;4957256;28;20126;-73
2022/02/13 13:29:27;;;;;;;83.25;26.20;;;;;;;;;;4953080;28;20157;-73
2022/02/13 13:31:57;;;;;;;72.53;24.85;;;;;;;;;;4957414;28;20087;-73
2022/02/13 13:34:25;;;;;;;72.80;22.58;;;;;;;;;;4953738;28;20561;-73
2022/02/13 13:36:51;;;;;;;84.80;24.70;;;;;;;;;;4957305;28;20138;-74
2022/02/13 13:39:34;;;;;;;70.15;22.25;;;;;;;;;;4952057;28;20078;-73
2022/02/13 13:42:11;;;;;;;66.60;23.30;;;;;;;;;;4957689;28;20479;-71
2022/02/13 13:44:38;;;;;;;60.13;21.77;;;;;;;;;;4954954;28;20584;-73
2022/02/13 13:47:05;;;;;;;60.63;21.43;;;;;;;;;;4953940;28;20515;-74
2022/02/13 13:49:31;;;;;;;52.47;19.45;;;;;;;;;;4952806;28;20443;-73
2022/02/13 13:51:57;;;;;;;59.15;19.95;;;;;;;;;;4953306;28;20147;-73
2022/02/13 13:54:24;;;;;;;50.45;18.60;;;;;;;;;;4952673;28;20074;-73
2022/02/13 13:56:51;;;;;;;55.40;21.33;;;;;;;;;;4954276;28;20094;-74
2022/02/13 13:59:17;;;;;;;48.17;21.10;;;;;;;;;;4954322;28;20538;-73
2022/02/13 14:01:45;;;;;;;50.72;15.70;;;;;;;;;;4954258;28;20091;-73
2022/02/13 14:04:11;;;;;;;33.53;12.70;;;;;;;;;;4954249;28;20496;-73
2022/02/13 14:06:43;;;;;;;37.90;14.83;;;;;;;;;;4951710;28;20086;-73
2022/02/13 14:09:11;;;;;;;33.92;14.82;;;;;;;;;;4953048;28;20620;-73
2022/02/13 14:11:38;;;;;;;36.75;15.95;;;;;;;;;;4952042;28;20051;-73
2022/02/13 14:14:04;;;;;;;34.78;14.88;;;;;;;;;;4951007;28;20086;-73
2022/02/13 14:16:31;;;;;;;42.08;20.38;;;;;;;;;;4947291;28;20134;-73
2022/02/13 14:18:57;;;;;;;36.65;15.75;;;;;;;;;;4953737;28;20074;-73
2022/02/13 14:21:24;;;;;;;31.50;16.75;;;;;;;;;;4968399;28;20411;-73
2022/02/13 14:23:51;;;;;;;36.67;17.23;;;;;;;;;;4953406;28;20051;-73
2022/02/13 14:26:17;;;;;;;42.60;17.20;;;;;;;;;;4951305;28;20138;-73
2022/02/13 14:28:44;;;;;;;46.47;19.70;;;;;;;;;;4954382;28;20158;-73